Belle Mina, Alabama
Current Conditions -  °F | °C
As of 6:53 PM on Saturday 22 Nov 2014 (Local Time) from KDCU Reporting Station
Overcast Overcast  
Wind Chill: 58°   Ceiling: 4100
Heat Index: 58°   Visibility: 10mi
Dew Point: 39°   Wind: 7mph
Humidity: 49%   Direction: 120°ESE
Pressure: 30.15"   Gusts: NA
Location:  34.66°N, 86.88°W
Report Text: KDCU 230053Z AUTO 12006KT 10SM BKN041 OVC050 14/04 A3015 RMK AO2 SLP207 T01440039
Loading
Personal Weather Stations






























Interactive Weather Map New forecast layout! Learn more

10-Day Weather Forecast

Advertisements
Track Severe Weather on mobile